Terminal Aerodrome Forecast
Issued by NWS

Home | Current Version | Previous Version | Text Only | Print | Product List | Glossary On
Versions: 1 2 3 4 5 6 7 8 9 10 11 12 13 14 15 16 17 18 19 20 21 22 23 24 25 26 27
000
FTUS43 KDVN 310520
TAFCID
TAF
KCID 310520Z 3106/0106 10003KT 3SM BR SKC
     FM310700 00000KT 1SM BR SKC
     FM310900 00000KT 1/2SM FG SKC
      TEMPO 3109/3112 1/4SM FG BKN002
     FM311500 16006KT 4SM BR BKN008
     FM311700 17007KT P6SM SCT035=

USA.gov is the U.S. government's official web portal to all federal, state and local government web resources and services.